Achilles, Virginia
Current Conditions -  °F | °C
As of 12:54 PM on Monday 26 Jan 2015 (Local Time) from KPHF Reporting Station
Clear Clear  
Wind Chill: 52°   Ceiling: Unl
Heat Index: 52°   Visibility: 10mi
Dew Point: 41°   Wind: 7mph
Humidity: 66%   Direction: 30°NNE
Pressure: 29.62"   Gusts: NA
Location:  37.28°N, 76.44°W
Report Text: KPHF 261754Z 03006KT 10SM CLR 11/05 A2962 RMK AO2 SLP030 60000 T01110050 10117 20056 56030
Loading
Personal Weather Stations






























Interactive Weather Map New forecast layout! Learn more

10-Day Weather Forecast

Advertisements
Track Severe Weather on mobile